Mississagi — CFG8050 — position and weather

sailwx.info

Track history (hours):
 
Tides and Currents Weather Stations Pressure Air Temp Water Temp Dewpoint Dewpoint Depression Visibility Wind Speed Wind Dir Waves Ship Positions

Mississagi

Last reported at 2016-May-23 08:33 UTC. Time now 2016-May-25 09:12 UTC.
Position N 46°17' W 083°46'.

Length 189 m; draft 7.2 m.

Type: Cargo ship. MMSI: 316004940.

Date/timePositionNaut miles runAvg speedWind from/ knotsBaromVisibWave heightAir tempDewpointWater temp
2016-May-23 08:33N 46°17' W 083°46'0 0.0
2016-May-23 07:33N 46°17' W 083°46'0 0.0
2016-May-23 06:33N 46°17' W 083°46'1 0.9
2016-May-23 05:33N 46°17' W 083°46'8 8.1
2016-May-23 04:33N 46°09' W 083°42'17 8.0
2016-May-23 02:24N 45°53' W 083°33'1312.0
2016-May-23 01:19N 45°44' W 083°47'4 3.4
2016-May-23 00:05N 45°43' W 083°53'1 1.9
2016-May-22 23:24N 45°44' W 083°51'52 5.3
2016-May-22 13:32N 46°31' W 084°22'0 0.0
2016-May-22 12:33N 46°31' W 084°22'0 0.0
2016-May-22 10:24N 46°31' W 084°22'0 0.5
2016-May-22 09:29N 46°31' W 084°23'  
2016-May-17 15:08N 45°42' W 083°43'5 6.5
2016-May-17 14:24N 45°42' W 083°50'0 0.2
2016-May-17 13:23N 45°42' W 083°50'5 6.1
2016-May-17 12:33N 45°47' W 083°52'1212.0
2016-May-17 11:33N 45°58' W 083°53'1010.4
2016-May-17 10:33N 46°07' W 084°01'28 6.6
2016-May-17 06:22N 46°30' W 084°25'38 2.9
2016-May-16 17:06N 45°59' W 083°53'  
Track history (hours):
 
Tides and Currents Weather Stations Pressure Air Temp Water Temp Dewpoint Dewpoint Depression Visibility Wind Speed Wind Dir Waves Ship Positions

Mississagi

Last reported at 2016-May-23 08:33 UTC. Time now 2016-May-25 09:12 UTC.
Position N 46°17' W 083°46'.

Length 189 m; draft 7.2 m.

Type: Cargo ship. MMSI: 316004940.

Date/timePositionNaut miles runAvg speedWind from/ knotsBaromVisibWave heightAir tempDewpointWater temp
2016-May-23 08:33N 46°17' W 083°46'0 0.0
2016-May-23 07:33N 46°17' W 083°46'0 0.0
2016-May-23 06:33N 46°17' W 083°46'1 0.9
2016-May-23 05:33N 46°17' W 083°46'8 8.1
2016-May-23 04:33N 46°09' W 083°42'17 8.0
2016-May-23 02:24N 45°53' W 083°33'1312.0
2016-May-23 01:19N 45°44' W 083°47'4 3.4
2016-May-23 00:05N 45°43' W 083°53'1 1.9
2016-May-22 23:24N 45°44' W 083°51'52 5.3
2016-May-22 13:32N 46°31' W 084°22'0 0.0
2016-May-22 12:33N 46°31' W 084°22'0 0.0
2016-May-22 10:24N 46°31' W 084°22'0 0.5
2016-May-22 09:29N 46°31' W 084°23'  
2016-May-17 15:08N 45°42' W 083°43'5 6.5
2016-May-17 14:24N 45°42' W 083°50'0 0.2
2016-May-17 13:23N 45°42' W 083°50'5 6.1
2016-May-17 12:33N 45°47' W 083°52'1212.0
2016-May-17 11:33N 45°58' W 083°53'1010.4
2016-May-17 10:33N 46°07' W 084°01'28 6.6
2016-May-17 06:22N 46°30' W 084°25'38 2.9
2016-May-16 17:06N 45°59' W 083°53'  

Dump ship's entire track history